JAR1806 LGRP-DNEN
Flight info
| Callsign | JAR1806 |
|---|---|
| Flight time | 0h 47m |
| Altitude | 36000 |
| Route | ROXOL UG80 SIT UM978 PLH/N0456F350 UB1 ARLOS/N0458F300 M1 RASNO/N0456F360 M1 BNA M709 MB/N0461F350 M7 MASIT/N0459F370 M7 TONBA/N0466F360 UR778 ILDOR UQ592 DEMOX UR778 EDARA/N0460F380 UR778 DELIS UG616 KAN/N0463F370 UA604 AKLIS/N0459F380 UQ200 ISDIL |
| Aircraft | A21N/M-SDE2E3FGHIRWXY/LB1 |
Departure
| Time | 2026-04-14 04:25 |
|---|---|
| Airport | Rhodes International Airport "Diagoras" (LGRP) |
Arrival
| Time | 2026-04-14 05:13 |
|---|---|
| Airport | Akanu Ibiam International Airport (DNEN) |
| Time | Latitude | Longitude | Altitude | Speed | Heading |
|---|---|---|---|---|---|
| 2026-04-14 04:18 | 36.40418 | 28.09075 | 26 ft | 0 kts | 71° |
| 2026-04-14 04:19 | 36.40421 | 28.09087 | 26 ft | 2 kts | 72° |
| 2026-04-14 04:19 | 36.40428 | 28.09116 | 26 ft | 4 kts | 71° |
| 2026-04-14 04:19 | 36.40441 | 28.09158 | 27 ft | 6 kts | 68° |
| 2026-04-14 04:19 | 36.40458 | 28.09215 | 27 ft | 8 kts | 70° |
| 2026-04-14 04:20 | 36.40479 | 28.09284 | 27 ft | 9 kts | 67° |
| 2026-04-14 04:20 | 36.40514 | 28.09350 | 27 ft | 9 kts | 44° |
| 2026-04-14 04:20 | 36.40566 | 28.09399 | 27 ft | 10 kts | 37° |
| 2026-04-14 04:20 | 36.40604 | 28.09465 | 27 ft | 10 kts | 68° |
| 2026-04-14 04:21 | 36.40625 | 28.09542 | 27 ft | 10 kts | 71° |
| 2026-04-14 04:21 | 36.40648 | 28.09621 | 27 ft | 10 kts | 70° |
| 2026-04-14 04:21 | 36.40671 | 28.09703 | 27 ft | 10 kts | 70° |
| 2026-04-14 04:21 | 36.40696 | 28.09787 | 27 ft | 11 kts | 69° |
| 2026-04-14 04:22 | 36.40720 | 28.09874 | 26 ft | 11 kts | 71° |
| 2026-04-14 04:22 | 36.40746 | 28.09962 | 27 ft | 11 kts | 72° |
| 2026-04-14 04:22 | 36.40773 | 28.10051 | 26 ft | 11 kts | 66° |
| 2026-04-14 04:22 | 36.40800 | 28.10143 | 26 ft | 11 kts | 70° |
| 2026-04-14 04:23 | 36.40827 | 28.10236 | 26 ft | 11 kts | 70° |
| 2026-04-14 04:23 | 36.40853 | 28.10330 | 27 ft | 11 kts | 72° |
| 2026-04-14 04:23 | 36.40889 | 28.10415 | 27 ft | 11 kts | 42° |
| 2026-04-14 04:23 | 36.40960 | 28.10414 | 29 ft | 11 kts | 332° |
| 2026-04-14 04:24 | 36.41012 | 28.10334 | 26 ft | 14 kts | 289° |
| 2026-04-14 04:24 | 36.41000 | 28.10195 | 30 ft | 24 kts | 251° |
| 2026-04-14 04:24 | 36.40895 | 28.09851 | 27 ft | 70 kts | 249° |
| 2026-04-14 04:24 | 36.40659 | 28.09042 | 28 ft | 130 kts | 249° |
| 2026-04-14 04:25 | 36.40289 | 28.07770 | 112 ft | 172 kts | 250° |
| 2026-04-14 04:25 | 36.39895 | 28.06305 | 515 ft | 184 kts | 251° |
| 2026-04-14 04:25 | 36.39489 | 28.04803 | 1142 ft | 179 kts | 249° |
| 2026-04-14 04:25 | 36.39078 | 28.03372 | 1833 ft | 178 kts | 248° |
| 2026-04-14 04:26 | 36.38624 | 28.01820 | 2159 ft | 205 kts | 248° |
| 2026-04-14 04:26 | 36.38122 | 28.00087 | 2632 ft | 219 kts | 248° |
| 2026-04-14 04:26 | 36.37604 | 27.98280 | 3287 ft | 225 kts | 249° |
| 2026-04-14 04:26 | 36.37077 | 27.96436 | 3978 ft | 227 kts | 250° |
| 2026-04-14 04:27 | 36.36552 | 27.94604 | 4831 ft | 224 kts | 251° |
| 2026-04-14 04:27 | 36.36039 | 27.92813 | 5599 ft | 222 kts | 251° |
| 2026-04-14 04:27 | 36.35524 | 27.91016 | 6377 ft | 221 kts | 252° |
| 2026-04-14 04:27 | 36.35007 | 27.89213 | 7071 ft | 222 kts | 252° |
| 2026-04-14 04:28 | 36.34486 | 27.87400 | 7740 ft | 224 kts | 252° |
| 2026-04-14 04:28 | 36.33964 | 27.85568 | 8433 ft | 226 kts | 253° |
| 2026-04-14 04:28 | 36.33694 | 27.83655 | 9123 ft | 227 kts | 272° |
| 2026-04-14 04:28 | 36.34111 | 27.81774 | 9777 ft | 231 kts | 299° |
| 2026-04-14 04:29 | 36.35263 | 27.80360 | 10372 ft | 240 kts | 328° |
| 2026-04-14 04:29 | 36.36906 | 27.79863 | 10895 ft | 253 kts | 360° |
| 2026-04-14 04:29 | 36.38593 | 27.80564 | 11403 ft | 265 kts | 34° |
| 2026-04-14 04:29 | 36.39747 | 27.82374 | 11826 ft | 279 kts | 69° |
| 2026-04-14 04:30 | 36.40006 | 27.84811 | 12188 ft | 292 kts | 94° |
| 2026-04-14 04:30 | 36.39897 | 27.86482 | 12606 ft | 295 kts | 97° |
| 2026-04-14 04:30 | 36.39667 | 27.89021 | 13326 ft | 297 kts | 98° |
| 2026-04-14 04:30 | 36.39436 | 27.91583 | 14040 ft | 300 kts | 99° |
| 2026-04-14 04:31 | 36.39048 | 27.94134 | 14674 ft | 302 kts | 108° |
| 2026-04-14 04:31 | 36.38314 | 27.96627 | 15052 ft | 316 kts | 116° |
| 2026-04-14 04:31 | 36.36380 | 28.01802 | 15905 ft | 340 kts | 117° |
| 2026-04-14 04:32 | 36.35370 | 28.04472 | 16570 ft | 344 kts | 117° |
| 2026-04-14 04:32 | 36.34353 | 28.07175 | 17227 ft | 348 kts | 117° |
| 2026-04-14 04:32 | 36.33066 | 28.09725 | 17808 ft | 351 kts | 137° |
| 2026-04-14 04:32 | 36.31085 | 28.11417 | 18372 ft | 346 kts | 164° |
| 2026-04-14 04:33 | 36.28749 | 28.11859 | 18913 ft | 338 kts | 191° |
| 2026-04-14 04:33 | 36.26554 | 28.11001 | 19449 ft | 330 kts | 217° |
| 2026-04-14 04:33 | 36.24944 | 28.09053 | 19977 ft | 323 kts | 243° |
| 2026-04-14 04:33 | 36.24244 | 28.06450 | 20525 ft | 320 kts | 267° |
| 2026-04-14 04:34 | 36.24210 | 28.03688 | 21125 ft | 322 kts | 272° |
| 2026-04-14 04:34 | 36.24230 | 28.00911 | 21735 ft | 323 kts | 270° |
| 2026-04-14 04:34 | 36.24115 | 27.98121 | 22310 ft | 326 kts | 265° |
| 2026-04-14 04:34 | 36.23727 | 27.95340 | 22815 ft | 332 kts | 258° |
| 2026-04-14 04:35 | 36.23018 | 27.92564 | 23040 ft | 345 kts | 251° |
| 2026-04-14 04:35 | 36.21960 | 27.89831 | 23242 ft | 359 kts | 243° |
| 2026-04-14 04:35 | 36.20551 | 27.87204 | 23412 ft | 374 kts | 236° |
| 2026-04-14 04:35 | 36.18721 | 27.84841 | 23574 ft | 391 kts | 220° |
| 2026-04-14 04:36 | 36.16362 | 27.83030 | 23745 ft | 405 kts | 213° |
| 2026-04-14 04:36 | 36.13883 | 27.81287 | 23915 ft | 414 kts | 214° |
| 2026-04-14 04:36 | 36.11408 | 27.79427 | 24190 ft | 419 kts | 216° |
| 2026-04-14 04:36 | 36.08951 | 27.77470 | 24585 ft | 421 kts | 218° |
| 2026-04-14 04:37 | 36.06514 | 27.75459 | 24994 ft | 422 kts | 218° |
| 2026-04-14 04:37 | 36.04085 | 27.73413 | 25389 ft | 423 kts | 219° |
| 2026-04-14 04:37 | 36.01655 | 27.71343 | 25769 ft | 425 kts | 219° |
| 2026-04-14 04:37 | 35.99220 | 27.69257 | 26151 ft | 426 kts | 220° |
| 2026-04-14 04:38 | 35.96784 | 27.67163 | 26497 ft | 428 kts | 219° |
| 2026-04-14 04:38 | 35.94343 | 27.65065 | 26849 ft | 429 kts | 219° |
| 2026-04-14 04:38 | 35.91882 | 27.62948 | 27183 ft | 431 kts | 219° |
| 2026-04-14 04:38 | 35.89420 | 27.60831 | 27495 ft | 433 kts | 219° |
| 2026-04-14 04:39 | 35.86947 | 27.58705 | 27819 ft | 434 kts | 219° |
| 2026-04-14 04:39 | 35.84462 | 27.56572 | 28137 ft | 435 kts | 220° |
| 2026-04-14 04:39 | 35.82015 | 27.54472 | 28573 ft | 434 kts | 220° |
| 2026-04-14 04:39 | 35.79545 | 27.52356 | 29029 ft | 432 kts | 219° |
| 2026-04-14 04:40 | 35.77100 | 27.50224 | 29482 ft | 429 kts | 221° |
| 2026-04-14 04:40 | 35.74751 | 27.47977 | 29911 ft | 426 kts | 223° |
| 2026-04-14 04:40 | 35.72477 | 27.45665 | 30386 ft | 422 kts | 224° |
| 2026-04-14 04:41 | 35.68039 | 27.41026 | 31141 ft | 417 kts | 224° |
| 2026-04-14 04:41 | 35.65825 | 27.38714 | 31407 ft | 418 kts | 224° |
| 2026-04-14 04:41 | 35.63603 | 27.36414 | 31688 ft | 417 kts | 224° |
| 2026-04-14 04:41 | 35.61376 | 27.34125 | 31945 ft | 418 kts | 224° |
| 2026-04-14 04:42 | 35.59135 | 27.31833 | 32087 ft | 421 kts | 224° |
| 2026-04-14 04:42 | 35.56882 | 27.29538 | 32323 ft | 421 kts | 224° |
| 2026-04-14 04:42 | 35.54631 | 27.27250 | 32615 ft | 420 kts | 224° |
| 2026-04-14 04:42 | 35.52384 | 27.24970 | 32890 ft | 419 kts | 224° |
| 2026-04-14 04:43 | 35.50140 | 27.22694 | 33151 ft | 418 kts | 224° |
| 2026-04-14 04:43 | 35.47896 | 27.20419 | 33394 ft | 418 kts | 224° |
| 2026-04-14 04:43 | 35.45665 | 27.18142 | 33642 ft | 417 kts | 226° |
| 2026-04-14 04:43 | 35.43606 | 27.15664 | 33866 ft | 412 kts | 233° |
| 2026-04-14 04:44 | 35.41879 | 27.12925 | 34340 ft | 400 kts | 242° |
| 2026-04-14 04:44 | 35.40501 | 27.10011 | 34689 ft | 393 kts | 246° |
| 2026-04-14 04:44 | 35.39275 | 27.07024 | 34853 ft | 392 kts | 248° |
| 2026-04-14 04:44 | 35.38116 | 27.04003 | 35001 ft | 392 kts | 249° |
| 2026-04-14 04:45 | 35.36989 | 27.00968 | 35153 ft | 391 kts | 250° |
| 2026-04-14 04:45 | 35.35871 | 26.97930 | 35328 ft | 391 kts | 250° |
| 2026-04-14 04:45 | 35.34752 | 26.94899 | 35506 ft | 390 kts | 250° |
| 2026-04-14 04:45 | 35.33646 | 26.91873 | 35680 ft | 389 kts | 250° |
| 2026-04-14 04:46 | 35.32552 | 26.88850 | 35841 ft | 388 kts | 251° |
| 2026-04-14 04:46 | 35.31464 | 26.85830 | 36036 ft | 386 kts | 251° |
| 2026-04-14 04:46 | 35.30394 | 26.82822 | 36163 ft | 385 kts | 251° |
| 2026-04-14 04:47 | 8.09204 | 9.05341 | 35980 ft | 382 kts | 174° |
| 2026-04-14 04:47 | 8.06593 | 9.05909 | 34322 ft | 387 kts | 170° |
| 2026-04-14 04:47 | 8.03908 | 9.06139 | 34372 ft | 388 kts | 180° |
| 2026-04-14 04:48 | 7.98509 | 9.06453 | 34507 ft | 391 kts | 173° |
| 2026-04-14 04:48 | 7.93077 | 9.07111 | 34644 ft | 395 kts | 172° |
| 2026-04-14 04:49 | 7.87576 | 9.07889 | 34769 ft | 403 kts | 172° |
| 2026-04-14 04:49 | 7.82082 | 9.08678 | 34902 ft | 409 kts | 172° |
| 2026-04-14 04:50 | 7.76391 | 9.09483 | 35005 ft | 417 kts | 171° |
| 2026-04-14 04:50 | 7.70596 | 9.10294 | 35134 ft | 424 kts | 171° |
| 2026-04-14 04:51 | 7.64707 | 9.11115 | 35278 ft | 430 kts | 171° |
| 2026-04-14 04:51 | 7.58728 | 9.11950 | 35391 ft | 437 kts | 172° |
| 2026-04-14 04:51 | 7.55721 | 9.12370 | 35031 ft | 436 kts | 172° |
| 2026-04-14 04:52 | 7.52703 | 9.12791 | 34220 ft | 441 kts | 171° |
| 2026-04-14 04:52 | 7.49645 | 9.13217 | 33456 ft | 447 kts | 171° |
| 2026-04-14 04:52 | 7.46536 | 9.13652 | 32989 ft | 455 kts | 171° |
| 2026-04-14 04:52 | 7.43381 | 9.14092 | 32872 ft | 459 kts | 171° |
| 2026-04-14 04:53 | 7.40214 | 9.14533 | 32866 ft | 460 kts | 171° |
| 2026-04-14 04:53 | 7.33874 | 9.15415 | 32866 ft | 460 kts | 171° |
| 2026-04-14 04:54 | 7.27542 | 9.16297 | 32864 ft | 460 kts | 171° |
| 2026-04-14 04:54 | 7.21204 | 9.17172 | 32863 ft | 460 kts | 173° |
| 2026-04-14 04:54 | 7.18009 | 9.17147 | 32869 ft | 461 kts | 187° |
| 2026-04-14 04:55 | 7.14895 | 9.16374 | 32867 ft | 463 kts | 201° |
| 2026-04-14 04:55 | 7.12086 | 9.14800 | 32865 ft | 464 kts | 218° |
| 2026-04-14 04:55 | 7.09832 | 9.12485 | 32865 ft | 466 kts | 234° |
| 2026-04-14 04:55 | 7.08270 | 9.09633 | 32873 ft | 467 kts | 245° |
| 2026-04-14 04:56 | 7.06920 | 9.06646 | 32863 ft | 469 kts | 242° |
| 2026-04-14 04:56 | 7.03262 | 9.01235 | 32872 ft | 468 kts | 231° |
| 2026-04-14 04:56 | 7.01213 | 8.98696 | 32477 ft | 466 kts | 230° |
| 2026-04-14 04:57 | 6.99165 | 8.96168 | 31741 ft | 466 kts | 230° |
| 2026-04-14 04:57 | 6.97123 | 8.93633 | 30953 ft | 467 kts | 230° |
| 2026-04-14 04:57 | 6.95080 | 8.91075 | 30159 ft | 470 kts | 230° |
| 2026-04-14 04:57 | 6.93041 | 8.88499 | 29373 ft | 470 kts | 230° |
| 2026-04-14 04:58 | 6.91015 | 8.85936 | 28719 ft | 466 kts | 230° |
| 2026-04-14 04:58 | 6.89010 | 8.83401 | 28125 ft | 460 kts | 230° |
| 2026-04-14 04:58 | 6.87023 | 8.80894 | 27551 ft | 456 kts | 230° |
| 2026-04-14 04:58 | 6.85082 | 8.78451 | 26983 ft | 451 kts | 230° |
| 2026-04-14 04:59 | 6.83105 | 8.75968 | 26412 ft | 446 kts | 230° |
| 2026-04-14 04:59 | 6.81196 | 8.73577 | 25873 ft | 442 kts | 230° |
| 2026-04-14 04:59 | 6.79279 | 8.71180 | 25332 ft | 438 kts | 230° |
| 2026-04-14 04:59 | 6.77380 | 8.68804 | 24780 ft | 434 kts | 230° |
| 2026-04-14 05:00 | 6.75495 | 8.66446 | 24249 ft | 430 kts | 230° |
| 2026-04-14 05:00 | 6.73632 | 8.64110 | 23722 ft | 426 kts | 230° |
| 2026-04-14 05:00 | 6.71784 | 8.61796 | 23156 ft | 422 kts | 230° |
| 2026-04-14 05:00 | 6.69971 | 8.59487 | 22521 ft | 419 kts | 233° |
| 2026-04-14 05:01 | 6.68456 | 8.56992 | 21912 ft | 417 kts | 242° |
| 2026-04-14 05:01 | 6.67221 | 8.54365 | 21311 ft | 414 kts | 244° |
| 2026-04-14 05:01 | 6.66043 | 8.51738 | 20722 ft | 410 kts | 245° |
| 2026-04-14 05:01 | 6.64881 | 8.49134 | 20154 ft | 406 kts | 245° |
| 2026-04-14 05:02 | 6.63728 | 8.46549 | 19581 ft | 403 kts | 245° |
| 2026-04-14 05:02 | 6.62585 | 8.43987 | 19021 ft | 400 kts | 245° |
| 2026-04-14 05:02 | 6.61453 | 8.41448 | 18487 ft | 396 kts | 245° |
| 2026-04-14 05:02 | 6.60348 | 8.38921 | 17900 ft | 394 kts | 248° |
| 2026-04-14 05:03 | 6.59458 | 8.36326 | 17251 ft | 391 kts | 252° |
| 2026-04-14 05:03 | 6.58721 | 8.33703 | 16632 ft | 389 kts | 254° |
| 2026-04-14 05:03 | 6.58014 | 8.31088 | 16038 ft | 385 kts | 254° |
| 2026-04-14 05:03 | 6.57315 | 8.28498 | 15447 ft | 383 kts | 254° |
| 2026-04-14 05:04 | 6.56751 | 8.25891 | 14854 ft | 381 kts | 261° |
| 2026-04-14 05:04 | 6.56445 | 8.23259 | 14281 ft | 378 kts | 264° |
| 2026-04-14 05:04 | 6.56204 | 8.20636 | 13726 ft | 375 kts | 265° |
| 2026-04-14 05:04 | 6.55968 | 8.18031 | 13107 ft | 372 kts | 265° |
| 2026-04-14 05:05 | 6.55733 | 8.15451 | 12538 ft | 369 kts | 265° |
| 2026-04-14 05:05 | 6.55500 | 8.12897 | 11970 ft | 365 kts | 265° |
| 2026-04-14 05:05 | 6.55288 | 8.10372 | 11403 ft | 361 kts | 268° |
| 2026-04-14 05:05 | 6.55312 | 8.07859 | 10848 ft | 358 kts | 274° |
| 2026-04-14 05:06 | 6.55473 | 8.05376 | 10319 ft | 354 kts | 275° |
| 2026-04-14 05:06 | 6.55646 | 8.02953 | 10078 ft | 340 kts | 275° |
| 2026-04-14 05:06 | 6.55811 | 8.00630 | 9898 ft | 326 kts | 275° |
| 2026-04-14 05:06 | 6.55967 | 7.98402 | 9659 ft | 314 kts | 275° |
| 2026-04-14 05:07 | 6.55976 | 7.96231 | 9239 ft | 309 kts | 263° |
| 2026-04-14 05:07 | 6.55560 | 7.94125 | 8819 ft | 305 kts | 256° |
| 2026-04-14 05:07 | 6.55040 | 7.92107 | 8390 ft | 302 kts | 255° |
| 2026-04-14 05:07 | 6.54504 | 7.90071 | 7951 ft | 300 kts | 255° |
| 2026-04-14 05:08 | 6.53980 | 7.88081 | 7514 ft | 296 kts | 255° |
| 2026-04-14 05:08 | 6.53461 | 7.86095 | 6913 ft | 292 kts | 255° |
| 2026-04-14 05:08 | 6.52945 | 7.84105 | 6250 ft | 289 kts | 255° |
| 2026-04-14 05:08 | 6.52452 | 7.82188 | 5596 ft | 285 kts | 254° |
| 2026-04-14 05:09 | 6.51892 | 7.80300 | 4988 ft | 278 kts | 248° |
| 2026-04-14 05:09 | 6.51340 | 7.78433 | 4385 ft | 273 kts | 259° |
| 2026-04-14 05:09 | 6.51042 | 7.76591 | 3967 ft | 268 kts | 257° |
| 2026-04-14 05:09 | 6.50650 | 7.74730 | 3680 ft | 269 kts | 257° |
| 2026-04-14 05:10 | 6.50308 | 7.72918 | 3416 ft | 266 kts | 259° |
| 2026-04-14 05:10 | 6.49998 | 7.71087 | 3102 ft | 259 kts | 259° |
| 2026-04-14 05:10 | 6.49688 | 7.69330 | 2770 ft | 252 kts | 258° |
| 2026-04-14 05:10 | 6.49387 | 7.67616 | 2449 ft | 246 kts | 259° |
| 2026-04-14 05:11 | 6.49097 | 7.65941 | 2135 ft | 241 kts | 259° |
| 2026-04-14 05:11 | 6.48818 | 7.64328 | 1857 ft | 231 kts | 259° |
| 2026-04-14 05:11 | 6.48548 | 7.62771 | 1555 ft | 215 kts | 259° |
| 2026-04-14 05:11 | 6.48306 | 7.61375 | 1313 ft | 197 kts | 259° |
| 2026-04-14 05:12 | 6.48082 | 7.60072 | 1057 ft | 182 kts | 259° |
| 2026-04-14 05:12 | 6.47867 | 7.58887 | 794 ft | 163 kts | 260° |
| 2026-04-14 05:12 | 6.47686 | 7.57836 | 592 ft | 143 kts | 259° |
| 2026-04-14 05:12 | 6.47528 | 7.56899 | 474 ft | 127 kts | 260° |
| 2026-04-14 05:13 | 6.47391 | 7.56116 | 475 ft | 102 kts | 261° |
| 2026-04-14 05:13 | 6.47314 | 7.55667 | 483 ft | 31 kts | 256° |
| 2026-04-14 05:13 | 6.47171 | 7.55611 | 489 ft | 21 kts | 155° |
| 2026-04-14 05:13 | 6.47152 | 7.55736 | 488 ft | 20 kts | 80° |
| 2026-04-14 05:14 | 6.47178 | 7.55885 | 477 ft | 23 kts | 82° |
| 2026-04-14 05:14 | 6.47203 | 7.56050 | 475 ft | 25 kts | 80° |
| 2026-04-14 05:14 | 6.47212 | 7.56158 | 473 ft | 11 kts | 101° |
| 2026-04-14 05:14 | 6.47169 | 7.56196 | 472 ft | 7 kts | 174° |
| 2026-04-14 05:15 | 6.47151 | 7.56196 | 472 ft | 0 kts | 176° |